sensor_id;sensor_type;location;lat;lon;timestamp;P1;durP1;ratioP1;P2;durP2;ratioP2
53479;SDS011;56133;51.012;-1.648;2022-08-19T00:01:51;6.22;;;2.10;;
53479;SDS011;56133;51.012;-1.648;2022-08-19T00:04:18;7.00;;;2.20;;
53479;SDS011;56133;51.012;-1.648;2022-08-19T00:06:46;7.22;;;2.30;;
53479;SDS011;56133;51.012;-1.648;2022-08-19T00:09:13;6.30;;;2.45;;
53479;SDS011;56133;51.012;-1.648;2022-08-19T00:11:41;5.18;;;1.80;;
53479;SDS011;56133;51.012;-1.648;2022-08-19T00:14:08;7.68;;;2.20;;
53479;SDS011;56133;51.012;-1.648;2022-08-19T00:16:36;5.43;;;1.95;;
53479;SDS011;56133;51.012;-1.648;2022-08-19T00:19:06;4.55;;;1.67;;
53479;SDS011;56133;51.012;-1.648;2022-08-19T00:21:32;6.35;;;2.30;;
53479;SDS011;56133;51.012;-1.648;2022-08-19T00:24:03;5.35;;;1.73;;
53479;SDS011;56133;51.012;-1.648;2022-08-19T00:26:29;5.85;;;1.80;;
53479;SDS011;56133;51.012;-1.648;2022-08-19T00:28:55;7.40;;;1.70;;
53479;SDS011;56133;51.012;-1.648;2022-08-19T00:31:21;7.70;;;2.15;;
53479;SDS011;56133;51.012;-1.648;2022-08-19T00:33:47;5.50;;;1.75;;
53479;SDS011;56133;51.012;-1.648;2022-08-19T00:36:15;4.38;;;1.65;;
53479;SDS011;56133;51.012;-1.648;2022-08-19T00:38:41;7.45;;;2.05;;
53479;SDS011;56133;51.012;-1.648;2022-08-19T00:41:07;5.07;;;1.92;;
53479;SDS011;56133;51.012;-1.648;2022-08-19T00:43:34;6.25;;;2.30;;
53479;SDS011;56133;51.012;-1.648;2022-08-19T00:45:59;5.78;;;1.90;;
53479;SDS011;56133;51.012;-1.648;2022-08-19T00:48:27;4.50;;;1.77;;
53479;SDS011;56133;51.012;-1.648;2022-08-19T00:50:53;6.47;;;1.70;;
53479;SDS011;56133;51.012;-1.648;2022-08-19T00:53:22;4.22;;;1.60;;
53479;SDS011;56133;51.012;-1.648;2022-08-19T00:55:52;5.55;;;1.80;;
53479;SDS011;56133;51.012;-1.648;2022-08-19T00:58:20;4.97;;;1.65;;
53479;SDS011;56133;51.012;-1.648;2022-08-19T01:00:49;4.65;;;1.65;;
53479;SDS011;56133;51.012;-1.648;2022-08-19T01:03:16;2.67;;;1.30;;
53479;SDS011;56133;51.012;-1.648;2022-08-19T01:05:43;4.03;;;1.60;;
53479;SDS011;56133;51.012;-1.648;2022-08-19T01:08:10;4.50;;;1.50;;
53479;SDS011;56133;51.012;-1.648;2022-08-19T01:10:40;5.22;;;1.73;;
53479;SDS011;56133;51.012;-1.648;2022-08-19T01:13:08;5.57;;;1.65;;
53479;SDS011;56133;51.012;-1.648;2022-08-19T01:15:38;3.97;;;1.52;;
53479;SDS011;56133;51.012;-1.648;2022-08-19T01:18:09;3.22;;;1.20;;
53479;SDS011;56133;51.012;-1.648;2022-08-19T01:20:36;4.15;;;1.35;;
53479;SDS011;56133;51.012;-1.648;2022-08-19T01:23:03;6.15;;;1.45;;
53479;SDS011;56133;51.012;-1.648;2022-08-19T01:25:31;4.22;;;1.30;;
53479;SDS011;56133;51.012;-1.648;2022-08-19T01:28:02;4.90;;;1.67;;
53479;SDS011;56133;51.012;-1.648;2022-08-19T01:30:30;4.55;;;1.55;;
53479;SDS011;56133;51.012;-1.648;2022-08-19T01:32:59;4.97;;;1.73;;
53479;SDS011;56133;51.012;-1.648;2022-08-19T01:35:25;3.22;;;1.70;;
53479;SDS011;56133;51.012;-1.648;2022-08-19T01:37:54;4.32;;;1.88;;
53479;SDS011;56133;51.012;-1.648;2022-08-19T01:40:21;4.75;;;1.85;;
53479;SDS011;56133;51.012;-1.648;2022-08-19T01:42:49;5.13;;;1.77;;
53479;SDS011;56133;51.012;-1.648;2022-08-19T01:45:15;3.30;;;1.75;;
53479;SDS011;56133;51.012;-1.648;2022-08-19T01:47:41;5.95;;;2.15;;
53479;SDS011;56133;51.012;-1.648;2022-08-19T01:50:08;5.00;;;1.70;;
53479;SDS011;56133;51.012;-1.648;2022-08-19T01:52:36;3.38;;;1.73;;
53479;SDS011;56133;51.012;-1.648;2022-08-19T01:55:04;3.97;;;1.70;;
53479;SDS011;56133;51.012;-1.648;2022-08-19T01:57:31;4.60;;;1.88;;
53479;SDS011;56133;51.012;-1.648;2022-08-19T01:59:57;4.40;;;1.50;;
53479;SDS011;56133;51.012;-1.648;2022-08-19T02:02:22;3.17;;;1.50;;
53479;SDS011;56133;51.012;-1.648;2022-08-19T02:04:48;4.43;;;1.73;;
53479;SDS011;56133;51.012;-1.648;2022-08-19T02:07:15;4.47;;;1.70;;
53479;SDS011;56133;51.012;-1.648;2022-08-19T02:09:40;3.80;;;1.52;;
53479;SDS011;56133;51.012;-1.648;2022-08-19T02:12:06;6.05;;;1.90;;
53479;SDS011;56133;51.012;-1.648;2022-08-19T02:14:33;3.70;;;1.50;;
53479;SDS011;56133;51.012;-1.648;2022-08-19T02:17:00;4.90;;;1.65;;
53479;SDS011;56133;51.012;-1.648;2022-08-19T02:19:26;2.95;;;1.63;;
53479;SDS011;56133;51.012;-1.648;2022-08-19T02:21:51;3.88;;;1.38;;
53479;SDS011;56133;51.012;-1.648;2022-08-19T02:24:17;3.53;;;1.42;;
53479;SDS011;56133;51.012;-1.648;2022-08-19T02:26:42;5.20;;;1.42;;
53479;SDS011;56133;51.012;-1.648;2022-08-19T02:29:08;4.57;;;1.30;;
53479;SDS011;56133;51.012;-1.648;2022-08-19T02:31:33;3.83;;;1.20;;
53479;SDS011;56133;51.012;-1.648;2022-08-19T02:33:59;2.83;;;0.90;;
53479;SDS011;56133;51.012;-1.648;2022-08-19T02:36:25;4.13;;;1.00;;
53479;SDS011;56133;51.012;-1.648;2022-08-19T02:38:52;1.92;;;0.90;;
53479;SDS011;56133;51.012;-1.648;2022-08-19T02:41:20;1.92;;;0.77;;
53479;SDS011;56133;51.012;-1.648;2022-08-19T02:43:48;5.20;;;1.27;;
53479;SDS011;56133;51.012;-1.648;2022-08-19T02:46:22;2.75;;;1.08;;
53479;SDS011;56133;51.012;-1.648;2022-08-19T02:48:52;3.60;;;1.20;;
53479;SDS011;56133;51.012;-1.648;2022-08-19T02:51:19;2.17;;;1.15;;
53479;SDS011;56133;51.012;-1.648;2022-08-19T02:53:46;3.08;;;1.02;;
53479;SDS011;56133;51.012;-1.648;2022-08-19T02:56:12;3.40;;;1.45;;
53479;SDS011;56133;51.012;-1.648;2022-08-19T02:58:38;4.75;;;1.55;;
53479;SDS011;56133;51.012;-1.648;2022-08-19T03:01:03;5.75;;;1.48;;
53479;SDS011;56133;51.012;-1.648;2022-08-19T03:03:29;4.47;;;1.40;;
53479;SDS011;56133;51.012;-1.648;2022-08-19T03:06:12;4.15;;;1.50;;
53479;SDS011;56133;51.012;-1.648;2022-08-19T03:08:42;2.30;;;1.35;;
53479;SDS011;56133;51.012;-1.648;2022-08-19T03:11:13;3.35;;;1.20;;
53479;SDS011;56133;51.012;-1.648;2022-08-19T03:16:09;2.88;;;1.10;;
53479;SDS011;56133;51.012;-1.648;2022-08-19T03:18:36;3.85;;;1.48;;
53479;SDS011;56133;51.012;-1.648;2022-08-19T03:21:01;4.60;;;1.23;;
53479;SDS011;56133;51.012;-1.648;2022-08-19T03:23:27;2.88;;;1.00;;
53479;SDS011;56133;51.012;-1.648;2022-08-19T03:25:53;2.75;;;1.48;;
53479;SDS011;56133;51.012;-1.648;2022-08-19T03:28:19;2.78;;;1.10;;
53479;SDS011;56133;51.012;-1.648;2022-08-19T03:30:59;2.30;;;1.08;;
53479;SDS011;56133;51.012;-1.648;2022-08-19T03:33:27;5.75;;;1.20;;
53479;SDS011;56133;51.012;-1.648;2022-08-19T03:36:10;3.90;;;0.93;;
53479;SDS011;56133;51.012;-1.648;2022-08-19T03:38:42;1.95;;;0.80;;
53479;SDS011;56133;51.012;-1.648;2022-08-19T03:41:12;2.05;;;0.90;;
53479;SDS011;56133;51.012;-1.648;2022-08-19T03:43:46;2.28;;;0.90;;
53479;SDS011;56133;51.012;-1.648;2022-08-19T03:46:14;2.17;;;0.98;;
53479;SDS011;56133;51.012;-1.648;2022-08-19T03:48:41;1.92;;;0.70;;
53479;SDS011;56133;51.012;-1.648;2022-08-19T03:51:15;3.28;;;0.70;;
53479;SDS011;56133;51.012;-1.648;2022-08-19T03:53:45;2.67;;;0.63;;
53479;SDS011;56133;51.012;-1.648;2022-08-19T03:56:12;1.55;;;0.70;;
53479;SDS011;56133;51.012;-1.648;2022-08-19T03:58:38;1.23;;;0.63;;
53479;SDS011;56133;51.012;-1.648;2022-08-19T04:01:08;2.88;;;0.80;;
53479;SDS011;56133;51.012;-1.648;2022-08-19T04:03:38;1.85;;;0.50;;
53479;SDS011;56133;51.012;-1.648;2022-08-19T04:08:42;1.23;;;0.50;;
53479;SDS011;56133;51.012;-1.648;2022-08-19T04:11:08;0.95;;;0.50;;
53479;SDS011;56133;51.012;-1.648;2022-08-19T04:13:35;1.95;;;0.50;;
53479;SDS011;56133;51.012;-1.648;2022-08-19T04:16:00;1.35;;;0.40;;
53479;SDS011;56133;51.012;-1.648;2022-08-19T04:18:26;3.03;;;0.55;;
53479;SDS011;56133;51.012;-1.648;2022-08-19T04:20:54;1.33;;;0.60;;
53479;SDS011;56133;51.012;-1.648;2022-08-19T04:23:20;2.28;;;0.50;;
53479;SDS011;56133;51.012;-1.648;2022-08-19T04:25:45;2.00;;;0.55;;
53479;SDS011;56133;51.012;-1.648;2022-08-19T04:28:11;1.67;;;0.60;;
53479;SDS011;56133;51.012;-1.648;2022-08-19T04:30:42;1.80;;;0.68;;
53479;SDS011;56133;51.012;-1.648;2022-08-19T04:33:10;2.95;;;0.80;;
53479;SDS011;56133;51.012;-1.648;2022-08-19T04:35:40;1.67;;;0.52;;
53479;SDS011;56133;51.012;-1.648;2022-08-19T04:38:07;2.50;;;0.80;;
53479;SDS011;56133;51.012;-1.648;2022-08-19T04:40:34;4.38;;;0.90;;
53479;SDS011;56133;51.012;-1.648;2022-08-19T04:43:23;3.13;;;0.70;;
53479;SDS011;56133;51.012;-1.648;2022-08-19T04:45:49;2.42;;;0.80;;
53479;SDS011;56133;51.012;-1.648;2022-08-19T04:48:16;5.63;;;1.02;;
53479;SDS011;56133;51.012;-1.648;2022-08-19T04:50:44;2.47;;;0.95;;
53479;SDS011;56133;51.012;-1.648;2022-08-19T04:53:10;4.90;;;1.05;;
53479;SDS011;56133;51.012;-1.648;2022-08-19T04:55:38;1.77;;;0.70;;
53479;SDS011;56133;51.012;-1.648;2022-08-19T04:58:05;1.90;;;0.93;;
53479;SDS011;56133;51.012;-1.648;2022-08-19T05:00:31;4.30;;;1.10;;
53479;SDS011;56133;51.012;-1.648;2022-08-19T05:02:56;2.67;;;1.20;;
53479;SDS011;56133;51.012;-1.648;2022-08-19T05:05:22;3.92;;;0.98;;
53479;SDS011;56133;51.012;-1.648;2022-08-19T05:07:47;2.85;;;0.90;;
53479;SDS011;56133;51.012;-1.648;2022-08-19T05:10:13;1.70;;;0.70;;
53479;SDS011;56133;51.012;-1.648;2022-08-19T05:12:38;4.93;;;0.80;;
53479;SDS011;56133;51.012;-1.648;2022-08-19T05:15:04;1.58;;;0.70;;
53479;SDS011;56133;51.012;-1.648;2022-08-19T05:17:33;2.67;;;0.80;;
53479;SDS011;56133;51.012;-1.648;2022-08-19T05:19:58;2.95;;;1.10;;
53479;SDS011;56133;51.012;-1.648;2022-08-19T05:22:43;2.75;;;0.90;;
53479;SDS011;56133;51.012;-1.648;2022-08-19T05:25:11;2.20;;;1.00;;
53479;SDS011;56133;51.012;-1.648;2022-08-19T05:27:39;4.68;;;1.02;;
53479;SDS011;56133;51.012;-1.648;2022-08-19T05:30:05;2.17;;;0.80;;
53479;SDS011;56133;51.012;-1.648;2022-08-19T05:32:31;3.10;;;0.90;;
53479;SDS011;56133;51.012;-1.648;2022-08-19T05:34:56;2.80;;;0.80;;
53479;SDS011;56133;51.012;-1.648;2022-08-19T05:37:22;3.00;;;0.98;;
53479;SDS011;56133;51.012;-1.648;2022-08-19T05:39:48;3.75;;;0.90;;
53479;SDS011;56133;51.012;-1.648;2022-08-19T05:42:14;1.95;;;0.73;;
53479;SDS011;56133;51.012;-1.648;2022-08-19T05:44:41;2.30;;;0.77;;
53479;SDS011;56133;51.012;-1.648;2022-08-19T05:47:12;2.78;;;0.90;;
53479;SDS011;56133;51.012;-1.648;2022-08-19T05:49:40;3.25;;;0.90;;
53479;SDS011;56133;51.012;-1.648;2022-08-19T05:52:07;6.00;;;1.20;;
53479;SDS011;56133;51.012;-1.648;2022-08-19T05:54:36;2.80;;;1.02;;
53479;SDS011;56133;51.012;-1.648;2022-08-19T05:57:05;4.78;;;1.13;;
53479;SDS011;56133;51.012;-1.648;2022-08-19T05:59:30;4.90;;;1.27;;
53479;SDS011;56133;51.012;-1.648;2022-08-19T06:01:56;7.13;;;1.60;;
53479;SDS011;56133;51.012;-1.648;2022-08-19T06:04:22;4.43;;;1.67;;
53479;SDS011;56133;51.012;-1.648;2022-08-19T06:06:49;6.53;;;1.40;;
53479;SDS011;56133;51.012;-1.648;2022-08-19T06:09:17;4.43;;;1.40;;
53479;SDS011;56133;51.012;-1.648;2022-08-19T06:11:47;9.18;;;1.42;;
53479;SDS011;56133;51.012;-1.648;2022-08-19T06:16:49;6.55;;;1.50;;
53479;SDS011;56133;51.012;-1.648;2022-08-19T06:19:17;11.73;;;1.98;;
53479;SDS011;56133;51.012;-1.648;2022-08-19T06:21:45;10.10;;;1.80;;
53479;SDS011;56133;51.012;-1.648;2022-08-19T06:24:13;8.38;;;1.80;;
53479;SDS011;56133;51.012;-1.648;2022-08-19T06:26:48;7.78;;;1.60;;
53479;SDS011;56133;51.012;-1.648;2022-08-19T06:29:15;7.50;;;1.90;;
53479;SDS011;56133;51.012;-1.648;2022-08-19T06:31:44;8.45;;;1.70;;
53479;SDS011;56133;51.012;-1.648;2022-08-19T06:34:11;11.27;;;2.13;;
53479;SDS011;56133;51.012;-1.648;2022-08-19T06:36:38;10.73;;;2.30;;
53479;SDS011;56133;51.012;-1.648;2022-08-19T06:39:10;9.15;;;1.80;;
53479;SDS011;56133;51.012;-1.648;2022-08-19T06:41:40;9.90;;;1.77;;
53479;SDS011;56133;51.012;-1.648;2022-08-19T06:44:07;11.57;;;1.92;;
53479;SDS011;56133;51.012;-1.648;2022-08-19T06:46:33;8.18;;;1.75;;
53479;SDS011;56133;51.012;-1.648;2022-08-19T06:48:59;9.35;;;2.00;;
53479;SDS011;56133;51.012;-1.648;2022-08-19T06:51:25;10.25;;;1.90;;
53479;SDS011;56133;51.012;-1.648;2022-08-19T06:53:51;9.27;;;1.60;;
53479;SDS011;56133;51.012;-1.648;2022-08-19T06:56:20;10.85;;;2.15;;
53479;SDS011;56133;51.012;-1.648;2022-08-19T06:58:48;8.30;;;1.92;;
53479;SDS011;56133;51.012;-1.648;2022-08-19T07:01:17;10.43;;;2.00;;
53479;SDS011;56133;51.012;-1.648;2022-08-19T07:03:44;10.32;;;2.30;;
53479;SDS011;56133;51.012;-1.648;2022-08-19T07:06:12;7.78;;;1.88;;
53479;SDS011;56133;51.012;-1.648;2022-08-19T07:08:40;11.68;;;2.35;;
53479;SDS011;56133;51.012;-1.648;2022-08-19T07:11:08;13.85;;;2.65;;
53479;SDS011;56133;51.012;-1.648;2022-08-19T07:13:34;8.30;;;1.98;;
53479;SDS011;56133;51.012;-1.648;2022-08-19T07:16:12;13.38;;;2.33;;
53479;SDS011;56133;51.012;-1.648;2022-08-19T07:18:39;12.20;;;2.13;;
53479;SDS011;56133;51.012;-1.648;2022-08-19T07:21:06;15.07;;;2.80;;
53479;SDS011;56133;51.012;-1.648;2022-08-19T07:23:33;12.82;;;2.55;;
53479;SDS011;56133;51.012;-1.648;2022-08-19T07:26:10;11.23;;;2.47;;
53479;SDS011;56133;51.012;-1.648;2022-08-19T07:28:36;22.67;;;4.18;;
53479;SDS011;56133;51.012;-1.648;2022-08-19T07:31:04;14.65;;;2.72;;
53479;SDS011;56133;51.012;-1.648;2022-08-19T07:33:34;14.48;;;2.70;;
53479;SDS011;56133;51.012;-1.648;2022-08-19T07:36:02;14.85;;;2.80;;
53479;SDS011;56133;51.012;-1.648;2022-08-19T07:38:32;8.70;;;2.45;;
53479;SDS011;56133;51.012;-1.648;2022-08-19T07:40:59;13.20;;;2.40;;
53479;SDS011;56133;51.012;-1.648;2022-08-19T07:43:25;13.35;;;2.47;;
53479;SDS011;56133;51.012;-1.648;2022-08-19T07:45:52;15.65;;;3.75;;
53479;SDS011;56133;51.012;-1.648;2022-08-19T07:48:21;12.13;;;2.55;;
53479;SDS011;56133;51.012;-1.648;2022-08-19T07:50:52;14.45;;;2.67;;
53479;SDS011;56133;51.012;-1.648;2022-08-19T07:53:23;13.80;;;3.30;;
53479;SDS011;56133;51.012;-1.648;2022-08-19T07:55:49;12.43;;;2.40;;
53479;SDS011;56133;51.012;-1.648;2022-08-19T07:58:18;11.48;;;2.60;;
53479;SDS011;56133;51.012;-1.648;2022-08-19T08:00:46;11.48;;;2.38;;
53479;SDS011;56133;51.012;-1.648;2022-08-19T08:03:13;11.90;;;2.08;;
53479;SDS011;56133;51.012;-1.648;2022-08-19T08:05:41;15.38;;;2.33;;
53479;SDS011;56133;51.012;-1.648;2022-08-19T08:08:25;13.57;;;3.03;;
53479;SDS011;56133;51.012;-1.648;2022-08-19T08:11:11;14.02;;;2.75;;
53479;SDS011;56133;51.012;-1.648;2022-08-19T08:13:37;14.07;;;2.33;;
53479;SDS011;56133;51.012;-1.648;2022-08-19T08:16:03;12.70;;;2.35;;
53479;SDS011;56133;51.012;-1.648;2022-08-19T08:18:29;8.93;;;2.22;;
53479;SDS011;56133;51.012;-1.648;2022-08-19T08:20:54;8.52;;;1.73;;
53479;SDS011;56133;51.012;-1.648;2022-08-19T08:23:21;10.45;;;1.83;;
53479;SDS011;56133;51.012;-1.648;2022-08-19T08:25:47;8.23;;;1.98;;
53479;SDS011;56133;51.012;-1.648;2022-08-19T08:28:14;13.10;;;2.10;;
53479;SDS011;56133;51.012;-1.648;2022-08-19T08:30:40;12.88;;;2.13;;
53479;SDS011;56133;51.012;-1.648;2022-08-19T08:33:07;10.00;;;2.22;;
53479;SDS011;56133;51.012;-1.648;2022-08-19T08:35:33;8.75;;;2.05;;
53479;SDS011;56133;51.012;-1.648;2022-08-19T08:37:58;9.55;;;2.13;;
53479;SDS011;56133;51.012;-1.648;2022-08-19T08:40:29;15.65;;;2.13;;
53479;SDS011;56133;51.012;-1.648;2022-08-19T08:48:44;8.73;;;1.70;;
53479;SDS011;56133;51.012;-1.648;2022-08-19T08:51:14;8.73;;;1.73;;
53479;SDS011;56133;51.012;-1.648;2022-08-19T08:53:46;8.70;;;1.90;;
53479;SDS011;56133;51.012;-1.648;2022-08-19T08:56:13;7.75;;;2.03;;
53479;SDS011;56133;51.012;-1.648;2022-08-19T09:01:10;7.95;;;1.92;;
53479;SDS011;56133;51.012;-1.648;2022-08-19T09:03:37;10.73;;;2.22;;
53479;SDS011;56133;51.012;-1.648;2022-08-19T09:06:14;8.02;;;1.75;;
53479;SDS011;56133;51.012;-1.648;2022-08-19T09:09:05;9.15;;;1.98;;
53479;SDS011;56133;51.012;-1.648;2022-08-19T09:16:39;6.80;;;1.88;;
53479;SDS011;56133;51.012;-1.648;2022-08-19T09:19:06;11.73;;;2.17;;
53479;SDS011;56133;51.012;-1.648;2022-08-19T09:21:33;9.90;;;1.98;;
53479;SDS011;56133;51.012;-1.648;2022-08-19T09:24:00;7.68;;;2.17;;
53479;SDS011;56133;51.012;-1.648;2022-08-19T09:26:29;8.25;;;2.17;;
53479;SDS011;56133;51.012;-1.648;2022-08-19T09:28:57;8.77;;;2.28;;
53479;SDS011;56133;51.012;-1.648;2022-08-19T09:31:24;8.85;;;1.80;;
53479;SDS011;56133;51.012;-1.648;2022-08-19T09:33:52;8.75;;;1.90;;
53479;SDS011;56133;51.012;-1.648;2022-08-19T09:36:22;9.30;;;1.80;;
53479;SDS011;56133;51.012;-1.648;2022-08-19T09:38:49;7.60;;;1.73;;
53479;SDS011;56133;51.012;-1.648;2022-08-19T09:41:17;6.88;;;1.80;;
53479;SDS011;56133;51.012;-1.648;2022-08-19T09:43:45;5.55;;;1.50;;
53479;SDS011;56133;51.012;-1.648;2022-08-19T09:46:12;7.25;;;1.60;;
53479;SDS011;56133;51.012;-1.648;2022-08-19T09:48:39;8.23;;;1.85;;
53479;SDS011;56133;51.012;-1.648;2022-08-19T09:51:06;8.23;;;1.70;;
53479;SDS011;56133;51.012;-1.648;2022-08-19T09:53:38;8.00;;;1.65;;
53479;SDS011;56133;51.012;-1.648;2022-08-19T09:56:05;7.63;;;1.70;;
53479;SDS011;56133;51.012;-1.648;2022-08-19T09:58:31;10.70;;;1.77;;
53479;SDS011;56133;51.012;-1.648;2022-08-19T10:00:58;10.35;;;1.85;;
53479;SDS011;56133;51.012;-1.648;2022-08-19T10:03:26;6.70;;;1.42;;
53479;SDS011;56133;51.012;-1.648;2022-08-19T10:05:53;8.15;;;1.60;;
53479;SDS011;56133;51.012;-1.648;2022-08-19T10:08:21;5.45;;;1.48;;
53479;SDS011;56133;51.012;-1.648;2022-08-19T10:10:50;7.88;;;1.38;;
53479;SDS011;56133;51.012;-1.648;2022-08-19T10:13:18;7.82;;;1.50;;
53479;SDS011;56133;51.012;-1.648;2022-08-19T10:15:48;8.63;;;1.50;;
53479;SDS011;56133;51.012;-1.648;2022-08-19T10:18:16;5.32;;;1.40;;
53479;SDS011;56133;51.012;-1.648;2022-08-19T10:20:42;6.88;;;1.38;;
53479;SDS011;56133;51.012;-1.648;2022-08-19T10:23:10;7.25;;;1.30;;
53479;SDS011;56133;51.012;-1.648;2022-08-19T10:25:36;11.65;;;1.40;;
53479;SDS011;56133;51.012;-1.648;2022-08-19T10:28:02;8.20;;;1.35;;
53479;SDS011;56133;51.012;-1.648;2022-08-19T10:30:28;6.63;;;1.30;;
53479;SDS011;56133;51.012;-1.648;2022-08-19T10:32:54;8.57;;;1.30;;
53479;SDS011;56133;51.012;-1.648;2022-08-19T10:35:19;6.15;;;1.20;;
53479;SDS011;56133;51.012;-1.648;2022-08-19T10:37:45;8.13;;;1.48;;
53479;SDS011;56133;51.012;-1.648;2022-08-19T10:40:10;6.78;;;1.15;;
53479;SDS011;56133;51.012;-1.648;2022-08-19T10:42:36;6.32;;;1.23;;
53479;SDS011;56133;51.012;-1.648;2022-08-19T10:45:03;6.63;;;1.33;;
53479;SDS011;56133;51.012;-1.648;2022-08-19T10:47:30;5.40;;;1.20;;
53479;SDS011;56133;51.012;-1.648;2022-08-19T10:49:56;8.20;;;1.27;;
53479;SDS011;56133;51.012;-1.648;2022-08-19T10:52:41;5.65;;;1.30;;
53479;SDS011;56133;51.012;-1.648;2022-08-19T10:55:08;6.43;;;1.40;;
53479;SDS011;56133;51.012;-1.648;2022-08-19T10:57:52;9.20;;;1.30;;
53479;SDS011;56133;51.012;-1.648;2022-08-19T11:00:18;13.55;;;1.33;;
53479;SDS011;56133;51.012;-1.648;2022-08-19T11:02:45;10.90;;;1.55;;
53479;SDS011;56133;51.012;-1.648;2022-08-19T11:05:11;6.47;;;1.17;;
53479;SDS011;56133;51.012;-1.648;2022-08-19T11:07:38;7.65;;;0.93;;
53479;SDS011;56133;51.012;-1.648;2022-08-19T11:10:05;4.95;;;1.00;;
53479;SDS011;56133;51.012;-1.648;2022-08-19T11:12:31;7.40;;;1.42;;
53479;SDS011;56133;51.012;-1.648;2022-08-19T11:14:58;9.40;;;1.10;;
53479;SDS011;56133;51.012;-1.648;2022-08-19T11:17:23;6.85;;;1.00;;
53479;SDS011;56133;51.012;-1.648;2022-08-19T11:19:49;7.00;;;1.17;;
53479;SDS011;56133;51.012;-1.648;2022-08-19T11:22:15;8.10;;;1.40;;
53479;SDS011;56133;51.012;-1.648;2022-08-19T11:24:40;6.35;;;1.20;;
53479;SDS011;56133;51.012;-1.648;2022-08-19T11:27:07;6.85;;;1.10;;
53479;SDS011;56133;51.012;-1.648;2022-08-19T11:29:34;6.20;;;1.10;;
53479;SDS011;56133;51.012;-1.648;2022-08-19T11:32:03;3.60;;;1.10;;
53479;SDS011;56133;51.012;-1.648;2022-08-19T11:34:31;5.75;;;1.00;;
53479;SDS011;56133;51.012;-1.648;2022-08-19T11:36:57;8.43;;;1.55;;
53479;SDS011;56133;51.012;-1.648;2022-08-19T11:39:24;6.75;;;1.05;;
53479;SDS011;56133;51.012;-1.648;2022-08-19T11:41:52;9.43;;;1.48;;
53479;SDS011;56133;51.012;-1.648;2022-08-19T11:44:18;5.75;;;1.58;;
53479;SDS011;56133;51.012;-1.648;2022-08-19T11:46:44;5.93;;;1.25;;
53479;SDS011;56133;51.012;-1.648;2022-08-19T11:49:11;7.10;;;1.20;;
53479;SDS011;56133;51.012;-1.648;2022-08-19T11:51:41;6.70;;;1.10;;
53479;SDS011;56133;51.012;-1.648;2022-08-19T11:54:08;5.50;;;1.15;;
53479;SDS011;56133;51.012;-1.648;2022-08-19T11:56:36;5.88;;;1.20;;
53479;SDS011;56133;51.012;-1.648;2022-08-19T11:59:02;6.03;;;1.10;;
53479;SDS011;56133;51.012;-1.648;2022-08-19T12:01:28;5.60;;;1.23;;
53479;SDS011;56133;51.012;-1.648;2022-08-19T12:03:54;7.32;;;1.33;;
53479;SDS011;56133;51.012;-1.648;2022-08-19T12:06:22;4.53;;;1.27;;
53479;SDS011;56133;51.012;-1.648;2022-08-19T12:08:54;5.63;;;0.93;;
53479;SDS011;56133;51.012;-1.648;2022-08-19T12:11:30;7.85;;;1.20;;
53479;SDS011;56133;51.012;-1.648;2022-08-19T12:13:56;6.10;;;1.50;;
53479;SDS011;56133;51.012;-1.648;2022-08-19T12:16:23;6.63;;;1.30;;
53479;SDS011;56133;51.012;-1.648;2022-08-19T12:18:53;7.03;;;1.00;;
53479;SDS011;56133;51.012;-1.648;2022-08-19T12:21:20;8.57;;;1.50;;
53479;SDS011;56133;51.012;-1.648;2022-08-19T12:23:53;7.07;;;1.10;;
53479;SDS011;56133;51.012;-1.648;2022-08-19T12:26:19;7.93;;;1.70;;
53479;SDS011;56133;51.012;-1.648;2022-08-19T12:28:45;5.78;;;0.80;;
53479;SDS011;56133;51.012;-1.648;2022-08-19T12:31:13;3.80;;;0.90;;
53479;SDS011;56133;51.012;-1.648;2022-08-19T12:33:39;6.32;;;1.15;;
53479;SDS011;56133;51.012;-1.648;2022-08-19T12:36:06;3.95;;;0.90;;
53479;SDS011;56133;51.012;-1.648;2022-08-19T12:38:34;3.95;;;0.85;;
53479;SDS011;56133;51.012;-1.648;2022-08-19T12:41:00;6.50;;;1.20;;
53479;SDS011;56133;51.012;-1.648;2022-08-19T12:43:26;6.93;;;1.00;;
53479;SDS011;56133;51.012;-1.648;2022-08-19T12:45:52;6.20;;;1.00;;
53479;SDS011;56133;51.012;-1.648;2022-08-19T12:48:17;3.72;;;0.98;;
53479;SDS011;56133;51.012;-1.648;2022-08-19T12:50:44;6.78;;;1.25;;
53479;SDS011;56133;51.012;-1.648;2022-08-19T12:53:13;8.48;;;1.13;;
53479;SDS011;56133;51.012;-1.648;2022-08-19T12:55:39;5.97;;;1.00;;
53479;SDS011;56133;51.012;-1.648;2022-08-19T12:58:05;3.90;;;0.88;;
53479;SDS011;56133;51.012;-1.648;2022-08-19T13:00:31;6.68;;;0.70;;
53479;SDS011;56133;51.012;-1.648;2022-08-19T13:02:57;12.23;;;1.13;;
53479;SDS011;56133;51.012;-1.648;2022-08-19T13:05:25;7.15;;;1.10;;
53479;SDS011;56133;51.012;-1.648;2022-08-19T13:07:55;4.55;;;0.70;;
53479;SDS011;56133;51.012;-1.648;2022-08-19T13:10:23;4.20;;;0.90;;
53479;SDS011;56133;51.012;-1.648;2022-08-19T13:12:51;5.85;;;0.90;;
53479;SDS011;56133;51.012;-1.648;2022-08-19T13:15:18;6.50;;;1.30;;
53479;SDS011;56133;51.012;-1.648;2022-08-19T13:17:46;6.82;;;0.85;;
53479;SDS011;56133;51.012;-1.648;2022-08-19T13:20:14;7.85;;;1.20;;
53479;SDS011;56133;51.012;-1.648;2022-08-19T13:22:40;4.95;;;0.90;;
53479;SDS011;56133;51.012;-1.648;2022-08-19T13:25:07;4.78;;;1.10;;
53479;SDS011;56133;51.012;-1.648;2022-08-19T13:27:33;5.32;;;0.80;;
53479;SDS011;56133;51.012;-1.648;2022-08-19T13:30:00;5.93;;;0.90;;
53479;SDS011;56133;51.012;-1.648;2022-08-19T13:32:45;5.10;;;0.70;;
53479;SDS011;56133;51.012;-1.648;2022-08-19T13:35:29;6.63;;;1.27;;
53479;SDS011;56133;51.012;-1.648;2022-08-19T13:37:54;4.30;;;0.80;;
53479;SDS011;56133;51.012;-1.648;2022-08-19T13:40:22;3.30;;;0.75;;
53479;SDS011;56133;51.012;-1.648;2022-08-19T13:42:52;6.20;;;1.10;;
53479;SDS011;56133;51.012;-1.648;2022-08-19T13:45:20;4.70;;;0.70;;
53479;SDS011;56133;51.012;-1.648;2022-08-19T13:47:49;5.55;;;1.00;;
53479;SDS011;56133;51.012;-1.648;2022-08-19T13:50:17;5.40;;;1.17;;
53479;SDS011;56133;51.012;-1.648;2022-08-19T13:52:46;5.63;;;1.30;;
53479;SDS011;56133;51.012;-1.648;2022-08-19T13:55:13;5.72;;;1.23;;
53479;SDS011;56133;51.012;-1.648;2022-08-19T13:57:39;6.70;;;1.50;;
53479;SDS011;56133;51.012;-1.648;2022-08-19T14:00:06;7.65;;;1.33;;
53479;SDS011;56133;51.012;-1.648;2022-08-19T14:02:35;6.82;;;1.40;;
53479;SDS011;56133;51.012;-1.648;2022-08-19T14:05:03;8.80;;;1.55;;
53479;SDS011;56133;51.012;-1.648;2022-08-19T14:07:29;5.07;;;1.10;;
53479;SDS011;56133;51.012;-1.648;2022-08-19T14:09:55;9.07;;;1.58;;
53479;SDS011;56133;51.012;-1.648;2022-08-19T14:12:20;6.53;;;1.40;;
53479;SDS011;56133;51.012;-1.648;2022-08-19T14:14:46;7.30;;;1.48;;
53479;SDS011;56133;51.012;-1.648;2022-08-19T14:17:12;9.82;;;1.23;;
53479;SDS011;56133;51.012;-1.648;2022-08-19T14:19:37;6.30;;;1.30;;
53479;SDS011;56133;51.012;-1.648;2022-08-19T14:22:03;6.22;;;1.17;;
53479;SDS011;56133;51.012;-1.648;2022-08-19T14:24:29;5.13;;;0.93;;
53479;SDS011;56133;51.012;-1.648;2022-08-19T14:26:54;8.70;;;1.20;;
53479;SDS011;56133;51.012;-1.648;2022-08-19T14:29:20;7.65;;;1.50;;
53479;SDS011;56133;51.012;-1.648;2022-08-19T14:31:45;6.88;;;1.15;;
53479;SDS011;56133;51.012;-1.648;2022-08-19T14:34:11;4.82;;;1.00;;
53479;SDS011;56133;51.012;-1.648;2022-08-19T14:36:37;9.98;;;1.77;;
53479;SDS011;56133;51.012;-1.648;2022-08-19T14:39:03;6.15;;;1.35;;
53479;SDS011;56133;51.012;-1.648;2022-08-19T14:41:29;4.75;;;1.15;;
53479;SDS011;56133;51.012;-1.648;2022-08-19T14:43:58;6.75;;;1.40;;
53479;SDS011;56133;51.012;-1.648;2022-08-19T14:46:26;8.93;;;1.45;;
53479;SDS011;56133;51.012;-1.648;2022-08-19T14:48:53;8.18;;;1.30;;
53479;SDS011;56133;51.012;-1.648;2022-08-19T14:51:20;6.57;;;1.23;;
53479;SDS011;56133;51.012;-1.648;2022-08-19T14:53:47;5.75;;;1.38;;
53479;SDS011;56133;51.012;-1.648;2022-08-19T14:56:17;8.65;;;1.73;;
53479;SDS011;56133;51.012;-1.648;2022-08-19T14:58:44;6.55;;;1.30;;